Terminal Aerodrome Forecast
Issued by NWS

Home | Current Version | Previous Version | Text Only | Print | Product List | Glossary On
Versions: 1 2 3 4 5 6 7 8 9 10 11 12 13 14 15 16 17
775
FTUS46 KMFR 062332
TAFLMT
TAF
KLMT 062332Z 0700/0724 VRB03KT P6SM FEW040 BKN100
     FM071200 VRB02KT 4SM BR SCT004
     FM071800 09003KT P6SM FEW005
     FM072100 12006KT P6SM FEW250=

USA.gov is the U.S. government's official web portal to all federal, state and local government web resources and services.